Ash Grove, Missouri
Current Conditions -  °F | °C
As of 6:52 PM on Saturday 22 Nov 2014 (Local Time) from KSGF Reporting Station
Broken Clouds Broken Clouds  
Wind Chill: 53°   Ceiling: 900
Heat Index: 53°   Visibility: 10mi
Dew Point: 50°   Wind: 13mph
Humidity: 89%   Direction: 170°S
Pressure: 29.87"   Gusts: NA
Location:  37.32°N, 93.59°W
Report Text: KSGF 230052Z 17011KT 10SM BKN009 12/10 A2987 RMK AO2 CIG 008V013 SLP113 T01170100
Loading
Personal Weather Stations






























Interactive Weather Map New forecast layout! Learn more

10-Day Weather Forecast

Advertisements
Track Severe Weather on mobile